SANTA FE DAM CA US current weather conditions

sailwx.info

Wind from 080 at 2 knots gusting 5

Air temperature 12.2° C
Dewpoint 7.1° C

Last reported at 2017-Jan-23 22:57 UTC.
Time now 2017-Jan-24 01:05 UTC

Location: N 34°08' W 117°57'.
View on Google Maps.

See reports from other nearby stations

  
Tides and Currents Weather Stations Pressure Air Temp Water Temp Dewpoint Dewpoint Depression Visibility Wind Speed Wind Dir Waves Ship Positions
date/time (UTC)wind fromknots sea level pressurealtimeterstation pressurevisibilityair tempwater tempwave heightnotes
2017-Jan-23 23:57 300 1 gusting 6 10.0
2017-Jan-23 22:57 080 2 gusting 5 12.2
2017-Jan-23 21:57 334 1 gusting 12 9.4
2017-Jan-23 20:57 206 6 gusting 14 7.8
2017-Jan-23 19:57 123 2 gusting 5 10.6
2017-Jan-23 18:57 041 1 gusting 6 8.3
2017-Jan-23 17:57 037 3 gusting 7 8.9
2017-Jan-23 16:57 210 3 gusting 14 8.9
2017-Jan-23 15:57 203 3 gusting 13 8.3
2017-Jan-23 14:57 275 2 gusting 11 7.2
2017-Jan-23 13:57 277 4 gusting 19 8.3
2017-Jan-23 12:57 267 3 gusting 11 8.9
2017-Jan-23 11:57 222 3 gusting 18 8.9
2017-Jan-23 10:57 222 1 gusting 9 10.0
2017-Jan-23 09:57 259 5 gusting 21 9.4
2017-Jan-23 08:57 242 3 gusting 14 10.0
2017-Jan-23 07:57 263 9 gusting 15 10.0
2017-Jan-23 06:57 124 2 gusting 6 11.7
2017-Jan-23 05:57 115 2 gusting 5 10.6
2017-Jan-23 04:57 062 0 gusting 4 10.0
2017-Jan-23 03:57 256 3 gusting 7 11.1
2017-Jan-23 02:57 057 3 gusting 10 11.1
2017-Jan-23 01:57 024 3 gusting 14 10.0
2017-Jan-23 00:57 073 6 gusting 13 10.0
2017-Jan-22 23:57 058 6 gusting 13 10.6
2017-Jan-22 22:57 065 7 gusting 15 9.4
2017-Jan-22 21:57 065 6 gusting 16 10.0
2017-Jan-22 20:57 068 7 gusting 16 8.9
2017-Jan-22 19:57 053 8 gusting 20 8.9
2017-Jan-22 18:57 055 7 gusting 16 8.9
2017-Jan-22 17:57 051 5 gusting 13 10.0
2017-Jan-22 16:57 053 5 gusting 13 9.4
2017-Jan-22 15:57 069 6 gusting 13 8.9
2017-Jan-22 14:57 076 5 gusting 13 9.4
2017-Jan-22 13:57 050 4 gusting 11 10.0
2017-Jan-22 12:57 046 3 gusting 11 10.0
2017-Jan-22 11:57 066 2 gusting 10 10.0
2017-Jan-22 10:57 034 2 gusting 6 10.6
2017-Jan-22 09:57 114 3 gusting 8 11.1
2017-Jan-22 08:57 058 2 gusting 6 11.7
2017-Jan-22 07:57 070 3 gusting 6 10.6
2017-Jan-22 06:57 066 2 gusting 6 10.6
2017-Jan-22 05:57 160 2 gusting 5 11.1
2017-Jan-22 04:57 043 0 gusting 3 10.0
2017-Jan-22 03:57 210 2 gusting 6 11.1
2017-Jan-22 02:57 241 2 gusting 5 11.7
2017-Jan-22 01:57 252 3 gusting 9 11.7